createdAt,value
2022-10-29T00:01:39.754Z,14.75
2022-10-29T00:04:07.087Z,16.23
2022-10-29T00:06:34.504Z,15.73
2022-10-29T00:09:01.788Z,15.57
2022-10-29T00:11:28.915Z,15.82
2022-10-29T00:14:00.037Z,15.68
2022-10-29T00:16:37.337Z,14.88
2022-10-29T00:22:41.934Z,14.75
2022-10-29T00:25:09.350Z,15.10
2022-10-29T00:27:36.442Z,15.32
2022-10-29T00:30:04.813Z,14.30
2022-10-29T00:32:32.113Z,15.57
2022-10-29T00:34:59.296Z,16.67
2022-10-29T00:45:18.530Z,15.65
2022-10-29T00:47:52.036Z,14.85
2022-10-29T00:58:16.705Z,14.70
2022-10-29T01:04:46.816Z,15.05
2022-10-29T01:07:14.403Z,15.65
2022-10-29T01:09:42.457Z,14.90
2022-10-29T01:12:29.578Z,15.68
2022-10-29T01:16:02.484Z,15.02
2022-10-29T01:35:02.220Z,14.77
2022-10-29T01:38:17.820Z,14.18
2022-10-29T01:41:06.724Z,14.88
2022-10-29T01:43:44.922Z,14.30
2022-10-29T01:46:27.589Z,15.82
2022-10-29T01:51:32.532Z,12.98
2022-10-29T01:54:02.391Z,13.75
2022-10-29T01:56:29.511Z,13.43
2022-10-29T01:58:59.550Z,14.38
2022-10-29T02:01:50.233Z,13.63
2022-10-29T02:04:29.257Z,13.35
2022-10-29T02:07:22.419Z,13.38
2022-10-29T02:10:21.669Z,13.68
2022-10-29T02:12:53.375Z,13.60
2022-10-29T02:15:33.653Z,13.75
2022-10-29T02:18:04.687Z,13.82
2022-10-29T02:20:32.019Z,14.90
2022-10-29T02:22:59.328Z,14.52
2022-10-29T02:25:28.027Z,13.27
2022-10-29T02:27:59.646Z,13.07
2022-10-29T02:30:26.764Z,13.07
2022-10-29T02:32:54.294Z,12.98
2022-10-29T02:35:21.644Z,14.02
2022-10-29T02:37:48.981Z,14.38
2022-10-29T02:40:16.247Z,13.60
2022-10-29T02:42:43.467Z,13.57
2022-10-29T02:45:11.083Z,13.25
2022-10-29T02:47:38.091Z,13.18
2022-10-29T02:50:06.082Z,14.30
2022-10-29T02:52:33.171Z,13.35
2022-10-29T02:55:00.358Z,13.45
2022-10-29T02:57:27.428Z,14.10
2022-10-29T02:59:54.621Z,13.27
2022-10-29T03:02:21.791Z,13.43
2022-10-29T03:04:48.981Z,13.70
2022-10-29T03:07:16.202Z,13.05
2022-10-29T03:09:43.323Z,13.57
2022-10-29T03:12:10.381Z,13.57
2022-10-29T03:14:37.656Z,12.77
2022-10-29T03:17:07.051Z,12.90
2022-10-29T03:19:42.494Z,13.32
2022-10-29T03:22:09.973Z,13.30
2022-10-29T03:24:37.307Z,14.05
2022-10-29T03:27:14.919Z,12.85
2022-10-29T03:29:42.060Z,13.43
2022-10-29T03:32:09.298Z,14.73
2022-10-29T03:34:36.426Z,13.55
2022-10-29T03:37:03.455Z,13.45
2022-10-29T03:39:30.572Z,14.23
2022-10-29T03:41:57.741Z,15.10
2022-10-29T03:44:24.800Z,14.85
2022-10-29T03:46:51.794Z,14.50
2022-10-29T03:49:19.029Z,14.60
2022-10-29T03:51:46.939Z,14.32
2022-10-29T03:54:14.068Z,15.30
2022-10-29T03:56:41.253Z,13.98
2022-10-29T04:01:35.755Z,13.70
2022-10-29T04:04:02.935Z,14.30
2022-10-29T04:06:48.251Z,14.65
2022-10-29T04:09:15.465Z,14.40
2022-10-29T04:12:11.909Z,15.05
2022-10-29T04:19:02.694Z,13.65
2022-10-29T04:28:51.527Z,14.75
2022-10-29T04:31:14.568Z,14.77
2022-10-29T04:33:41.718Z,15.48
2022-10-29T04:36:09.257Z,15.52
2022-10-29T04:38:36.461Z,14.85
2022-10-29T04:41:05.096Z,15.52
2022-10-29T04:43:32.271Z,14.68
2022-10-29T04:45:59.978Z,16.45
2022-10-29T04:48:29.047Z,15.65
2022-10-29T04:50:56.133Z,15.95
2022-10-29T04:53:23.399Z,16.42
2022-10-29T04:55:50.491Z,16.10
2022-10-29T04:58:19.847Z,16.10
2022-10-29T05:00:47.166Z,16.45
2022-10-29T05:03:14.704Z,16.05
2022-10-29T05:05:41.990Z,15.30
2022-10-29T05:08:11.830Z,15.05
2022-10-29T05:10:40.290Z,14.60
2022-10-29T05:13:13.579Z,15.68
2022-10-29T05:15:41.467Z,16.95
2022-10-29T05:18:09.950Z,17.10
2022-10-29T05:20:37.210Z,15.95
2022-10-29T05:23:07.608Z,16.48
2022-10-29T05:25:37.755Z,15.50
2022-10-29T05:28:13.231Z,15.50
2022-10-29T05:30:41.760Z,15.68
2022-10-29T05:33:10.263Z,15.20
2022-10-29T05:35:37.992Z,15.43
2022-10-29T05:38:05.790Z,14.45
2022-10-29T05:40:33.392Z,14.93
2022-10-29T05:43:01.722Z,14.68
2022-10-29T05:45:29.691Z,14.05
2022-10-29T05:48:01.682Z,13.90
2022-10-29T05:50:31.243Z,15.13
2022-10-29T05:53:00.873Z,14.43
2022-10-29T05:55:29.905Z,14.85
2022-10-29T05:58:01.763Z,15.57
2022-10-29T06:00:32.248Z,14.63
2022-10-29T06:02:59.791Z,14.82
2022-10-29T06:05:28.358Z,15.50
2022-10-29T06:08:00.843Z,14.10
2022-10-29T06:10:29.803Z,15.82
2022-10-29T06:12:56.963Z,15.68
2022-10-29T06:15:24.198Z,15.48
2022-10-29T06:17:51.387Z,14.95
2022-10-29T06:20:21.877Z,15.68
2022-10-29T06:22:58.090Z,15.77
2022-10-29T06:25:26.675Z,16.80
2022-10-29T06:28:15.457Z,15.13
2022-10-29T06:30:49.077Z,17.90
2022-10-29T06:33:18.506Z,16.75
2022-10-29T06:35:46.534Z,17.23
2022-10-29T06:38:14.376Z,17.70
2022-10-29T06:40:42.527Z,17.08
2022-10-29T06:43:12.440Z,16.40
2022-10-29T06:45:39.656Z,16.65
2022-10-29T06:48:07.443Z,17.80
2022-10-29T06:50:34.798Z,18.25
2022-10-29T06:53:05.894Z,17.27
2022-10-29T06:55:34.592Z,16.00
2022-10-29T06:58:16.162Z,17.50
2022-10-29T07:00:44.406Z,18.33
2022-10-29T07:03:19.769Z,17.35
2022-10-29T07:05:48.140Z,16.85
2022-10-29T07:08:15.346Z,17.10
2022-10-29T07:10:42.511Z,17.33
2022-10-29T07:13:09.853Z,18.63
2022-10-29T07:15:36.997Z,18.58
2022-10-29T07:18:08.250Z,18.48
2022-10-29T07:20:57.874Z,16.90
2022-10-29T07:26:09.301Z,18.30
2022-10-29T07:28:36.610Z,17.90
2022-10-29T07:31:03.761Z,18.83
2022-10-29T07:33:31.239Z,17.98
2022-10-29T07:35:59.485Z,17.33
2022-10-29T07:38:27.377Z,15.98
2022-10-29T07:40:54.990Z,16.92
2022-10-29T07:43:22.951Z,17.02
2022-10-29T07:45:51.771Z,16.60
2022-10-29T07:48:22.061Z,15.88
2022-10-29T07:50:49.705Z,16.05
2022-10-29T07:53:17.008Z,15.85
2022-10-29T07:55:44.422Z,15.35
2022-10-29T07:58:12.572Z,15.27
2022-10-29T08:00:41.096Z,15.77
2022-10-29T08:03:10.546Z,15.40
2022-10-29T08:05:37.791Z,15.45
2022-10-29T08:08:06.145Z,14.55
2022-10-29T08:10:35.745Z,15.13
2022-10-29T08:13:05.582Z,14.25
2022-10-29T08:15:34.860Z,15.15
2022-10-29T08:18:03.768Z,14.73
2022-10-29T08:20:30.989Z,15.60
2022-10-29T08:23:01.828Z,14.13
2022-10-29T08:25:29.755Z,14.50
2022-10-29T08:28:05.347Z,15.25
2022-10-29T08:30:33.900Z,14.55
2022-10-29T08:33:01.838Z,13.73
2022-10-29T08:35:30.365Z,14.73
2022-10-29T08:38:25.603Z,15.02
2022-10-29T08:44:14.566Z,14.43
2022-10-29T08:47:03.699Z,14.88
2022-10-29T08:49:47.885Z,14.35
2022-10-29T08:52:28.263Z,14.95
2022-10-29T08:55:27.206Z,14.88
2022-10-29T08:58:10.457Z,14.75
2022-10-29T09:01:01.776Z,14.85
2022-10-29T09:03:50.060Z,13.80
2022-10-29T09:12:13.382Z,13.35
2022-10-29T09:15:43.008Z,14.23
2022-10-29T09:19:03.259Z,13.75
2022-10-29T09:22:09.737Z,13.48
2022-10-29T09:32:28.822Z,13.90
2022-10-29T09:39:16.573Z,12.10
2022-10-29T09:46:56.930Z,11.35
2022-10-29T09:50:05.192Z,13.77
2022-10-29T09:52:40.645Z,12.68
2022-10-29T09:58:05.101Z,12.25
2022-10-29T10:00:44.758Z,12.13
2022-10-29T10:03:38.179Z,11.98
2022-10-29T10:06:22.258Z,10.93
2022-10-29T10:09:13.938Z,11.60
2022-10-29T10:12:13.879Z,10.70
2022-10-29T10:14:44.937Z,11.35
2022-10-29T10:17:13.794Z,10.40
2022-10-29T10:20:04.241Z,10.93
2022-10-29T10:22:58.918Z,10.48
2022-10-29T10:25:51.693Z,10.60
2022-10-29T10:32:20.588Z,10.30
2022-10-29T10:35:00.586Z,10.38
2022-10-29T10:37:54.811Z,11.52
2022-10-29T10:40:58.626Z,10.80
2022-10-29T11:13:43.218Z,10.10
2022-10-29T11:16:57.219Z,9.65
2022-10-29T11:20:09.788Z,9.57
2022-10-29T11:23:38.325Z,9.13
2022-10-29T11:26:18.129Z,10.00
2022-10-29T11:29:12.889Z,9.23
2022-10-29T11:32:15.483Z,10.35
2022-10-29T11:34:59.045Z,10.05
2022-10-29T11:37:43.266Z,9.93
2022-10-29T11:40:41.831Z,8.88
2022-10-29T11:43:13.519Z,10.35
2022-10-29T11:46:23.618Z,9.85
2022-10-29T11:49:25.901Z,9.25
2022-10-29T11:52:17.145Z,9.25
2022-10-29T11:55:16.665Z,9.45
2022-10-29T11:57:55.049Z,9.50
2022-10-29T12:00:35.239Z,9.30
2022-10-29T12:03:40.439Z,9.70
2022-10-29T12:06:40.636Z,9.93
2022-10-29T12:09:54.476Z,10.25
2022-10-29T12:12:52.122Z,9.23
2022-10-29T12:15:51.287Z,10.02
2022-10-29T12:19:01.904Z,9.85
2022-10-29T12:21:51.061Z,10.57
2022-10-29T12:24:27.167Z,11.23
2022-10-29T12:27:05.716Z,9.73
2022-10-29T12:29:48.337Z,10.60
2022-10-29T12:32:54.147Z,9.23
2022-10-29T12:35:51.404Z,10.70
2022-10-29T12:38:42.673Z,10.98
2022-10-29T12:41:50.185Z,10.70
2022-10-29T12:44:43.880Z,10.02
2022-10-29T12:47:26.458Z,10.07
2022-10-29T12:54:06.181Z,10.05
2022-10-29T12:56:34.315Z,12.18
2022-10-29T12:59:33.206Z,11.50
2022-10-29T13:02:38.581Z,10.68
2022-10-29T13:05:19.684Z,11.80
2022-10-29T13:08:07.540Z,11.18
2022-10-29T13:10:35.190Z,10.88
2022-10-29T13:13:14.179Z,11.38
2022-10-29T13:16:13.295Z,12.00
2022-10-29T13:20:02.892Z,11.40
2022-10-29T13:23:10.567Z,10.80
2022-10-29T13:25:41.108Z,11.30
2022-10-29T13:28:08.643Z,11.60
2022-10-29T13:34:04.612Z,11.00
2022-10-29T13:36:42.050Z,11.93
2022-10-29T13:39:19.659Z,11.25
2022-10-29T13:41:53.527Z,11.27
2022-10-29T13:44:29.233Z,11.00
2022-10-29T13:47:19.598Z,11.23
2022-10-29T13:49:53.103Z,12.00
2022-10-29T13:52:24.461Z,13.07
2022-10-29T13:55:14.629Z,12.10
2022-10-29T13:58:32.839Z,12.65
2022-10-29T14:01:17.304Z,13.32
2022-10-29T14:04:03.857Z,13.73
2022-10-29T14:06:40.170Z,13.82
2022-10-29T14:09:27.343Z,14.55
2022-10-29T14:12:04.747Z,15.32
2022-10-29T14:14:52.947Z,15.02
2022-10-29T14:17:20.300Z,15.18
2022-10-29T14:19:50.966Z,15.55
2022-10-29T14:22:36.567Z,16.23
2022-10-29T14:25:36.494Z,16.13
2022-10-29T14:28:26.770Z,14.98
2022-10-29T14:31:15.413Z,15.85
2022-10-29T14:33:58.531Z,16.67
2022-10-29T14:37:10.884Z,16.88
2022-10-29T14:40:14.339Z,15.38
2022-10-29T14:46:17.696Z,16.33
2022-10-29T14:53:53.059Z,15.73
2022-10-29T15:01:37.881Z,14.88
2022-10-29T15:04:54.326Z,15.45
2022-10-29T15:12:44.550Z,16.13
2022-10-29T15:15:41.490Z,16.65
2022-10-29T15:18:22.846Z,16.45
2022-10-29T15:20:56.071Z,16.50
2022-10-29T15:23:35.482Z,16.20
2022-10-29T15:26:22.297Z,16.92
2022-10-29T15:28:57.352Z,17.67
2022-10-29T15:31:46.089Z,16.65
2022-10-29T15:34:52.465Z,16.00
2022-10-29T15:37:43.881Z,16.27
2022-10-29T15:40:23.352Z,16.45
2022-10-29T15:58:24.609Z,20.33
2022-10-29T16:00:55.173Z,17.10
2022-10-29T16:03:26.241Z,16.48
2022-10-29T16:06:21.518Z,16.80
2022-10-29T16:08:55.468Z,16.40
2022-10-29T16:11:31.032Z,17.08
2022-10-29T16:13:59.208Z,18.02
2022-10-29T16:16:30.506Z,16.77
2022-10-29T16:18:57.863Z,17.30
2022-10-29T16:21:27.062Z,17.40
2022-10-29T16:23:55.262Z,18.10
2022-10-29T16:26:28.856Z,19.02
2022-10-29T16:28:58.664Z,17.90
2022-10-29T16:31:38.741Z,18.48
2022-10-29T16:34:13.737Z,18.63
2022-10-29T16:36:41.095Z,19.10
2022-10-29T16:39:08.642Z,19.65
2022-10-29T16:41:36.560Z,19.23
2022-10-29T16:44:04.222Z,20.25
2022-10-29T16:46:31.379Z,20.15
2022-10-29T16:48:59.077Z,18.80
2022-10-29T16:51:26.274Z,19.17
2022-10-29T16:53:53.395Z,17.67
2022-10-29T16:56:20.784Z,19.42
2022-10-29T16:58:48.011Z,18.30
2022-10-29T17:01:15.449Z,18.55
2022-10-29T17:03:42.675Z,19.80
2022-10-29T17:11:10.037Z,18.17
2022-10-29T17:13:38.305Z,18.55
2022-10-29T17:16:15.504Z,18.38
2022-10-29T17:18:42.726Z,18.50
2022-10-29T17:21:09.974Z,18.60
2022-10-29T17:23:37.317Z,19.90
2022-10-29T17:29:36.560Z,20.25
2022-10-29T17:32:31.082Z,18.70
2022-10-29T17:35:30.737Z,19.40
2022-10-29T17:37:57.992Z,18.98
2022-10-29T17:40:25.251Z,20.70
2022-10-29T17:42:52.706Z,20.23
2022-10-29T17:45:23.941Z,19.65
2022-10-29T17:52:07.372Z,17.65
2022-10-29T17:54:35.419Z,17.40
2022-10-29T17:57:02.838Z,17.08
2022-10-29T17:59:30.113Z,19.75
2022-10-29T18:01:57.530Z,17.27
2022-10-29T18:04:25.114Z,18.08
2022-10-29T18:06:52.362Z,18.23
2022-10-29T18:09:21.230Z,17.80
2022-10-29T18:11:50.411Z,17.42
2022-10-29T18:14:18.035Z,17.98
2022-10-29T18:16:46.624Z,17.98
2022-10-29T18:19:14.000Z,17.58
2022-10-29T18:21:41.816Z,17.02
2022-10-29T18:24:10.389Z,18.15
2022-10-29T18:26:55.197Z,18.15
2022-10-29T18:29:22.546Z,17.77
2022-10-29T18:31:50.536Z,17.58
2022-10-29T18:34:25.662Z,17.70
2022-10-29T18:36:53.096Z,17.38
2022-10-29T18:39:20.408Z,17.83
2022-10-29T18:41:47.590Z,17.92
2022-10-29T18:44:14.939Z,16.85
2022-10-29T18:46:42.327Z,18.45
2022-10-29T18:49:13.170Z,17.38
2022-10-29T18:51:40.583Z,19.15
2022-10-29T18:54:12.184Z,18.08
2022-10-29T18:56:42.633Z,19.73
2022-10-29T18:59:12.828Z,19.70
2022-10-29T19:01:40.719Z,21.05
2022-10-29T19:04:33.264Z,20.45
2022-10-29T19:07:00.451Z,20.38
2022-10-29T19:09:29.647Z,20.63
2022-10-29T19:11:59.429Z,20.55
2022-10-29T19:14:26.920Z,19.58
2022-10-29T19:16:54.187Z,20.23
2022-10-29T19:19:24.032Z,20.63
2022-10-29T19:21:51.467Z,20.50
2022-10-29T19:24:18.867Z,20.63
2022-10-29T19:26:46.219Z,21.15
2022-10-29T19:29:14.458Z,20.17
2022-10-29T19:31:44.069Z,20.73
2022-10-29T19:34:11.294Z,21.13
2022-10-29T19:36:40.287Z,20.35
2022-10-29T19:39:08.058Z,21.27
2022-10-29T19:41:35.855Z,23.70
2022-10-29T19:44:04.049Z,21.77
2022-10-29T19:46:31.693Z,23.08
2022-10-29T19:48:59.182Z,21.40
2022-10-29T19:51:27.187Z,22.25
2022-10-29T19:53:57.329Z,22.55
2022-10-29T19:56:24.707Z,22.50
2022-10-29T19:58:51.931Z,21.42
2022-10-29T20:01:19.537Z,21.40
2022-10-29T20:03:47.508Z,22.13
2022-10-29T20:06:16.545Z,21.85
2022-10-29T20:08:44.100Z,21.13
2022-10-29T20:11:11.886Z,21.33
2022-10-29T20:13:40.188Z,22.80
2022-10-29T20:16:15.462Z,22.42
2022-10-29T20:18:42.930Z,21.33
2022-10-29T20:21:10.268Z,22.23
2022-10-29T20:23:37.747Z,23.35
2022-10-29T20:26:06.230Z,23.60
2022-10-29T20:28:34.447Z,22.92
2022-10-29T20:31:18.084Z,23.27
2022-10-29T20:33:54.464Z,23.17
2022-10-29T20:36:22.850Z,23.33
2022-10-29T20:38:54.295Z,26.13
2022-10-29T20:41:22.148Z,25.90
2022-10-29T20:43:58.750Z,25.65
2022-10-29T20:46:27.152Z,27.00
2022-10-29T20:48:55.047Z,29.67
2022-10-29T20:51:23.604Z,27.52
2022-10-29T20:53:52.498Z,27.23
2022-10-29T20:56:21.973Z,26.00
2022-10-29T20:58:49.107Z,28.77
2022-10-29T21:01:19.817Z,37.95
2022-10-29T21:03:52.293Z,42.05
2022-10-29T21:06:20.295Z,43.75
2022-10-29T21:08:49.905Z,39.80
2022-10-29T21:11:19.730Z,37.75
2022-10-29T21:13:47.265Z,30.52
2022-10-29T21:16:22.675Z,29.70
2022-10-29T21:18:59.358Z,30.77
2022-10-29T21:21:29.142Z,29.98
2022-10-29T21:23:58.130Z,30.92
2022-10-29T21:26:27.855Z,28.40
2022-10-29T21:28:56.717Z,28.70
2022-10-29T21:31:24.400Z,29.00
2022-10-29T21:33:56.563Z,29.83
2022-10-29T21:36:24.440Z,26.25
2022-10-29T21:38:51.845Z,32.80
2022-10-29T21:41:19.083Z,31.83
2022-10-29T21:43:49.012Z,28.00
2022-10-29T21:46:16.108Z,27.92
2022-10-29T21:48:45.624Z,27.25
2022-10-29T21:51:19.027Z,26.65
2022-10-29T21:53:55.444Z,24.27
2022-10-29T21:56:24.177Z,27.52
2022-10-29T21:58:55.544Z,28.95
2022-10-29T22:01:22.869Z,26.60
2022-10-29T22:03:50.431Z,28.27
2022-10-29T22:06:24.971Z,28.25
2022-10-29T22:09:03.942Z,24.60
2022-10-29T22:11:41.767Z,25.90
2022-10-29T22:14:24.847Z,24.70
2022-10-29T22:16:52.739Z,26.13
2022-10-29T22:19:19.923Z,26.52
2022-10-29T22:21:47.214Z,27.05
2022-10-29T22:24:14.387Z,24.88
2022-10-29T22:32:06.430Z,24.10
2022-10-29T22:39:00.715Z,27.30
2022-10-29T22:41:29.369Z,25.63
2022-10-29T22:44:52.670Z,27.27
2022-10-29T22:50:31.071Z,26.58
2022-10-29T22:52:59.002Z,28.60
2022-10-29T22:55:26.281Z,25.33
2022-10-29T22:57:56.467Z,24.23
2022-10-29T23:00:23.702Z,26.08
2022-10-29T23:02:50.967Z,27.88
2022-10-29T23:05:18.213Z,24.27
2022-10-29T23:07:45.469Z,26.58
2022-10-29T23:10:12.566Z,26.55
2022-10-29T23:12:39.671Z,27.27
2022-10-29T23:15:08.672Z,27.42
2022-10-29T23:17:37.332Z,29.35
2022-10-29T23:20:04.906Z,25.02
2022-10-29T23:22:32.008Z,25.05
2022-10-29T23:24:59.013Z,29.80
2022-10-29T23:27:26.247Z,29.77
2022-10-29T23:29:53.546Z,28.63
2022-10-29T23:32:21.002Z,28.05
2022-10-29T23:34:48.196Z,28.83
2022-10-29T23:37:15.414Z,26.35
2022-10-29T23:39:42.919Z,28.45
2022-10-29T23:42:10.174Z,26.23
2022-10-29T23:44:37.547Z,27.20
2022-10-29T23:47:05.052Z,27.60
2022-10-29T23:49:33.407Z,25.00
2022-10-29T23:52:00.582Z,25.58
2022-10-29T23:54:27.978Z,26.17
2022-10-29T23:56:56.443Z,28.70
2022-10-29T23:59:24.734Z,26.92
